Time;durP1;ratioP1;P1;durP2;ratioP2;P2;SDS_P1;SDS_P2;PMS_P1;PMS_P2;Temp;Humidity;BMP_temperature;BMP_pressure;BME280_temperature;BME280_humidity;BME280_pressure;Samples;Min_cycle;Max_cycle;Signal;HPM_P1;HPM_P2
2023/09/17 00:02:06;;;;;;;;;;;;;;;22.32;100.00;97805.66;5024840;28;19929;-69
2023/09/17 00:04:34;;;;;;;;;;;;;;;22.29;100.00;97814.50;5013652;28;19932;-69
2023/09/17 00:07:00;;;;;;;;;;;;;;;22.29;100.00;97810.97;5012846;28;19949;-69
2023/09/17 00:09:27;;;;;;;;;;;;;;;22.26;100.00;97811.66;5012959;28;19965;-69
2023/09/17 00:11:53;;;;;;;;;;;;;;;22.23;100.00;97817.78;5012886;28;19925;-70
2023/09/17 00:14:20;;;;;;;;;;;;;;;22.23;100.00;97820.50;5013031;28;19926;-70
2023/09/17 00:16:46;;;;;;;;;;;;;;;22.21;100.00;97820.84;5022094;28;19930;-69
2023/09/17 00:19:13;;;;;;;;;;;;;;;22.18;100.00;97818.00;5021275;28;19964;-69
2023/09/17 00:21:41;;;;;;;;;;;;;;;22.18;100.00;97821.53;5024113;28;19952;-70
2023/09/17 00:24:08;;;;;;;;;;;;;;;22.17;100.00;97825.38;5023922;28;19957;-70
2023/09/17 00:26:34;;;;;;;;;;;;;;;22.17;100.00;97824.56;5019523;28;19926;-71
2023/09/17 00:29:01;;;;;;;;;;;;;;;22.17;100.00;97833.53;5020422;28;20052;-71
2023/09/17 00:31:28;;;;;;;;;;;;;;;22.16;100.00;97839.34;5023130;28;20869;-70
2023/09/17 00:33:55;;;;;;;;;;;;;;;22.14;100.00;97841.56;5023769;28;19952;-70
2023/09/17 00:36:21;;;;;;;;;;;;;;;22.15;100.00;97837.72;5021777;28;19953;-70
2023/09/17 00:38:49;;;;;;;;;;;;;;;22.14;100.00;97836.13;5020330;28;20009;-70
2023/09/17 00:41:15;;;;;;;;;;;;;;;22.11;100.00;97843.06;5021133;28;20354;-69
2023/09/17 00:43:41;;;;;;;;;;;;;;;22.09;100.00;97839.09;5023847;28;19925;-68
2023/09/17 00:46:08;;;;;;;;;;;;;;;22.07;100.00;97844.84;5025448;28;19933;-69
2023/09/17 00:48:35;;;;;;;;;;;;;;;22.05;100.00;97841.69;5020687;28;19926;-70
2023/09/17 00:51:01;;;;;;;;;;;;;;;22.04;100.00;97845.53;5027506;28;19929;-69
2023/09/17 00:53:28;;;;;;;;;;;;;;;22.03;100.00;97842.00;5020886;28;19952;-68
2023/09/17 00:55:56;;;;;;;;;;;;;;;22.02;100.00;97840.44;5020011;28;19922;-68
2023/09/17 00:58:23;;;;;;;;;;;;;;;22.02;100.00;97845.09;5021515;28;19949;-68
2023/09/17 01:00:49;;;;;;;;;;;;;;;22.01;100.00;97840.78;5023276;28;19927;-68
2023/09/17 01:03:16;;;;;;;;;;;;;;;21.84;100.00;97846.41;5022023;28;19991;-68
2023/09/17 01:05:43;;;;;;;;;;;;;;;21.77;100.00;97838.00;5019714;28;19989;-68
2023/09/17 01:08:10;;;;;;;;;;;;;;;21.81;100.00;97837.00;5020268;28;19926;-68
2023/09/17 01:10:39;;;;;;;;;;;;;;;21.86;100.00;97835.97;5027918;28;19936;-68
2023/09/17 01:13:08;;;;;;;;;;;;;;;21.86;100.00;97844.13;5021234;28;19926;-68
2023/09/17 01:15:34;;;;;;;;;;;;;;;21.88;100.00;97839.16;5023208;28;19928;-68
2023/09/17 01:18:01;;;;;;;;;;;;;;;21.87;100.00;97837.56;5023208;28;19925;-69
2023/09/17 01:20:30;;;;;;;;;;;;;;;21.86;100.00;97842.22;5020278;28;19930;-69
2023/09/17 01:22:59;;;;;;;;;;;;;;;21.78;100.00;97842.31;5019634;28;19964;-69
2023/09/17 01:25:31;;;;;;;;;;;;;;;21.69;100.00;97845.13;5021971;28;19926;-69
2023/09/17 01:28:00;;;;;;;;;;;;;;;21.73;100.00;97847.94;5022776;28;19956;-69
2023/09/17 01:30:27;;;;;;;;;;;;;;;21.74;100.00;97844.09;5019973;28;19941;-69
2023/09/17 01:32:53;;;;;;;;;;;;;;;21.77;100.00;97843.44;5019285;28;19933;-69
2023/09/17 01:35:21;;;;;;;;;;;;;;;21.77;100.00;97848.88;5020875;28;19926;-69
2023/09/17 01:37:50;;;;;;;;;;;;;;;21.80;100.00;97849.00;5022656;28;19929;-69
2023/09/17 01:40:18;;;;;;;;;;;;;;;21.81;100.00;97841.63;5021315;28;19943;-69
2023/09/17 01:42:46;;;;;;;;;;;;;;;21.69;100.00;97836.97;5019255;28;19925;-69
2023/09/17 01:45:14;;;;;;;;;;;;;;;21.56;100.00;97845.44;5021206;28;19933;-69
2023/09/17 01:47:42;;;;;;;;;;;;;;;21.44;100.00;97840.75;5022718;28;19926;-69
2023/09/17 01:50:08;;;;;;;;;;;;;;;21.53;100.00;97836.03;5022525;28;20361;-69
2023/09/17 01:52:36;;;;;;;;;;;;;;;21.64;100.00;97848.03;5019122;28;19960;-69
2023/09/17 01:55:03;;;;;;;;;;;;;;;21.69;100.00;97841.63;5018458;28;19952;-69
2023/09/17 01:57:31;;;;;;;;;;;;;;;21.67;100.00;97843.84;5014433;28;19932;-69
2023/09/17 01:59:57;;;;;;;;;;;;;;;21.69;100.00;97844.34;5022378;28;19996;-69
2023/09/17 02:02:25;;;;;;;;;;;;;;;21.69;100.00;97844.34;5020084;28;19970;-69
2023/09/17 02:04:51;;;;;;;;;;;;;;;21.65;100.00;97843.41;5019025;28;20287;-69
2023/09/17 02:07:19;;;;;;;;;;;;;;;21.48;100.00;97845.16;5020320;28;19964;-69
2023/09/17 02:09:45;;;;;;;;;;;;;;;21.16;100.00;97835.13;5023794;28;19956;-69
2023/09/17 02:12:12;;;;;;;;;;;;;;;21.21;100.00;97832.19;5025814;28;19925;-69
2023/09/17 02:14:39;;;;;;;;;;;;;;;21.32;100.00;97827.13;5022820;28;20314;-69
2023/09/17 02:17:06;;;;;;;;;;;;;;;21.43;100.00;97833.72;5024334;28;20445;-69
2023/09/17 02:19:33;;;;;;;;;;;;;;;21.50;100.00;97833.97;5026137;28;19993;-69
2023/09/17 02:22:00;;;;;;;;;;;;;;;21.52;100.00;97837.94;5026106;28;19936;-69
2023/09/17 02:24:26;;;;;;;;;;;;;;;21.53;100.00;97828.69;5023714;28;19932;-69
2023/09/17 02:26:55;;;;;;;;;;;;;;;21.54;100.00;97830.25;5022665;28;19921;-69
2023/09/17 02:29:21;;;;;;;;;;;;;;;21.37;100.00;97825.00;5024288;28;20021;-69
2023/09/17 02:31:48;;;;;;;;;;;;;;;21.18;100.00;97818.47;5025750;28;20420;-69
2023/09/17 02:34:14;;;;;;;;;;;;;;;21.23;100.00;97818.28;5025015;28;19926;-69
2023/09/17 02:36:42;;;;;;;;;;;;;;;21.21;100.00;97821.31;5022474;28;19953;-69
2023/09/17 02:39:08;;;;;;;;;;;;;;;21.36;100.00;97825.31;5022586;28;19926;-69
2023/09/17 02:41:34;;;;;;;;;;;;;;;21.40;100.00;97818.91;5025905;28;19933;-69
2023/09/17 02:44:02;;;;;;;;;;;;;;;21.42;100.00;97822.06;5025944;28;19929;-69
2023/09/17 02:46:29;;;;;;;;;;;;;;;21.43;100.00;97823.66;5024266;28;19926;-69
2023/09/17 02:48:55;;;;;;;;;;;;;;;21.44;100.00;97827.19;5022363;28;19953;-69
2023/09/17 02:51:22;;;;;;;;;;;;;;;21.42;100.00;97832.94;5023881;28;20677;-69
2023/09/17 02:53:50;;;;;;;;;;;;;;;21.44;100.00;97838.03;5025309;28;19953;-69
2023/09/17 02:56:16;;;;;;;;;;;;;;;21.42;100.00;97827.50;5024263;28;19933;-69
2023/09/17 02:58:42;;;;;;;;;;;;;;;21.40;100.00;97818.91;5022047;28;19925;-69
2023/09/17 03:01:17;;;;;;;;;;;;;;;21.38;100.00;97815.72;5022071;28;19926;-69
2023/09/17 03:03:44;;;;;;;;;;;;;;;21.29;100.00;97823.16;5025335;28;19925;-69
2023/09/17 03:06:11;;;;;;;;;;;;;;;21.21;100.00;97821.31;5024620;28;19948;-69
2023/09/17 03:08:41;;;;;;;;;;;;;;;21.30;100.00;97829.38;5022073;28;20011;-69
2023/09/17 03:11:13;;;;;;;;;;;;;;;21.30;100.00;97827.47;5021924;28;19933;-69
2023/09/17 03:13:40;;;;;;;;;;;;;;;21.25;100.00;97829.59;5013515;28;19932;-69
2023/09/17 03:16:07;;;;;;;;;;;;;;;21.20;100.00;97824.38;5023066;28;19926;-69
2023/09/17 03:18:33;;;;;;;;;;;;;;;20.98;100.00;97820.06;5013599;28;19926;-69
2023/09/17 03:20:59;;;;;;;;;;;;;;;20.68;100.00;97823.97;5013011;28;20555;-69
2023/09/17 03:23:26;;;;;;;;;;;;;;;20.67;100.00;97835.97;5013587;28;19986;-69
2023/09/17 03:25:52;;;;;;;;;;;;;;;20.29;100.00;97828.69;5013129;28;19925;-69
2023/09/17 03:28:20;;;;;;;;;;;;;;;20.37;100.00;97830.53;5013196;28;20037;-69
2023/09/17 03:30:46;;;;;;;;;;;;;;;20.35;100.00;97835.50;5013345;28;19995;-69
2023/09/17 03:33:13;;;;;;;;;;;;;;;20.15;100.00;97838.13;5012958;28;19922;-69
2023/09/17 03:35:40;;;;;;;;;;;;;;;20.17;100.00;97836.69;5013316;28;19929;-69
2023/09/17 03:38:06;;;;;;;;;;;;;;;20.28;100.00;97840.66;5013670;28;19926;-69
2023/09/17 03:40:31;;;;;;;;;;;;;;;20.68;100.00;97846.47;5016360;28;19925;-70
2023/09/17 03:42:58;;;;;;;;;;;;;;;20.82;100.00;97843.50;5024654;28;19929;-69
2023/09/17 03:45:25;;;;;;;;;;;;;;;20.93;100.00;97841.97;5024288;28;19952;-69
2023/09/17 03:47:52;;;;;;;;;;;;;;;21.01;100.00;97843.84;5024561;28;19935;-69
2023/09/17 03:50:18;;;;;;;;;;;;;;;21.05;100.00;97841.22;5022842;28;20024;-71
2023/09/17 03:52:47;;;;;;;;;;;;;;;21.04;100.00;97837.75;5020891;28;19949;-69
2023/09/17 03:55:14;;;;;;;;;;;;;;;21.06;100.00;97840.13;5021741;28;19961;-69
2023/09/17 03:57:40;;;;;;;;;;;;;;;21.09;100.00;97843.00;5024567;28;19933;-69
2023/09/17 04:00:10;;;;;;;;;;;;;;;21.11;100.00;97845.34;5024330;28;19933;-69
2023/09/17 04:02:38;;;;;;;;;;;;;;;21.11;100.00;97853.50;5021109;28;20413;-70
2023/09/17 04:05:09;;;;;;;;;;;;;;;21.11;100.00;97843.44;5021574;28;19922;-70
2023/09/17 04:07:36;;;;;;;;;;;;;;;21.10;100.00;97843.78;5021310;28;19926;-70
2023/09/17 04:10:05;;;;;;;;;;;;;;;21.09;100.00;97845.72;5020855;28;20096;-70
2023/09/17 04:12:32;;;;;;;;;;;;;;;21.09;100.00;97851.13;5024076;28;19937;-70
2023/09/17 04:14:58;;;;;;;;;;;;;;;21.08;100.00;97860.38;5024097;28;20114;-70
2023/09/17 04:17:25;;;;;;;;;;;;;;;21.06;100.00;97854.50;5024185;28;19925;-70
2023/09/17 04:19:53;;;;;;;;;;;;;;;21.05;100.00;97858.31;5024141;28;19925;-70
2023/09/17 04:22:19;;;;;;;;;;;;;;;21.03;100.00;97863.31;5022483;28;19927;-70
2023/09/17 04:24:46;;;;;;;;;;;;;;;21.04;100.00;97864.09;5020749;28;19948;-70
2023/09/17 04:27:12;;;;;;;;;;;;;;;21.02;100.00;97867.13;5021246;28;19933;-70
2023/09/17 04:29:39;;;;;;;;;;;;;;;21.04;100.00;97881.19;5025456;28;19980;-70
2023/09/17 04:32:05;;;;;;;;;;;;;;;21.02;100.00;97872.56;5023715;28;19969;-70
2023/09/17 04:34:32;;;;;;;;;;;;;;;21.03;100.00;97874.16;5020797;28;19931;-70
2023/09/17 04:36:59;;;;;;;;;;;;;;;21.01;100.00;97879.91;5020251;28;19945;-70
2023/09/17 04:39:26;;;;;;;;;;;;;;;20.98;100.00;97883.28;5022686;28;19968;-68
2023/09/17 04:41:52;;;;;;;;;;;;;;;20.97;100.00;97887.16;5023716;28;20613;-69
2023/09/17 04:44:18;;;;;;;;;;;;;;;20.95;100.00;97889.38;5022492;28;19936;-68
2023/09/17 04:46:45;;;;;;;;;;;;;;;20.96;100.00;97884.75;5021895;28;19933;-68
2023/09/17 04:49:14;;;;;;;;;;;;;;;20.95;100.00;97888.59;5020776;28;19933;-69
2023/09/17 04:51:40;;;;;;;;;;;;;;;20.95;100.00;97883.94;5023923;28;19926;-69
2023/09/17 04:54:08;;;;;;;;;;;;;;;20.93;100.00;97893.56;5023908;28;19932;-69
2023/09/17 04:56:35;;;;;;;;;;;;;;;20.92;100.00;97898.19;5012257;28;19929;-69
2023/09/17 04:59:02;;;;;;;;;;;;;;;20.91;100.00;97893.91;5012077;28;19953;-69
2023/09/17 05:01:29;;;;;;;;;;;;;;;20.81;100.00;97888.84;5012078;28;19941;-69
2023/09/17 05:03:55;;;;;;;;;;;;;;;20.65;100.00;97901.41;5011837;28;19992;-69
2023/09/17 05:06:22;;;;;;;;;;;;;;;20.47;100.00;97902.63;5011392;28;19985;-69
2023/09/17 05:08:48;;;;;;;;;;;;;;;20.45;100.00;97913.81;5011606;28;19960;-69
2023/09/17 05:11:16;;;;;;;;;;;;;;;20.61;100.00;97914.03;5011650;28;19925;-69
2023/09/17 05:13:42;;;;;;;;;;;;;;;20.69;100.00;97923.25;5011373;28;19926;-69
2023/09/17 05:16:09;;;;;;;;;;;;;;;20.63;100.00;97913.72;5020881;28;19988;-69
2023/09/17 05:18:35;;;;;;;;;;;;;;;20.38;100.00;97918.94;5019586;28;20035;-69
2023/09/17 05:21:01;;;;;;;;;;;;;;;20.34;100.00;97912.56;5019397;28;19965;-69
2023/09/17 05:23:28;;;;;;;;;;;;;;;20.41;100.00;97914.78;5021905;28;19926;-69
2023/09/17 05:25:55;;;;;;;;;;;;;;;20.44;100.00;97923.06;5022738;28;19922;-69
2023/09/17 05:28:23;;;;;;;;;;;;;;;20.49;100.00;97929.44;5020742;28;20262;-69
2023/09/17 05:30:50;;;;;;;;;;;;;;;20.57;100.00;97937.53;5019227;28;19921;-69
2023/09/17 05:33:16;;;;;;;;;;;;;;;20.62;100.00;97936.53;5020413;28;19929;-69
2023/09/17 05:35:43;;;;;;;;;;;;;;;20.55;100.00;97934.31;5022737;28;19993;-69
2023/09/17 05:38:09;;;;;;;;;;;;;;;20.63;100.00;97941.66;5022582;28;19961;-68
2023/09/17 05:40:35;;;;;;;;;;;;;;;20.65;100.00;97950.25;5019631;28;19933;-69
2023/09/17 05:43:02;;;;;;;;;;;;;;;20.73;100.00;97951.34;5019518;28;19925;-69
2023/09/17 05:45:29;;;;;;;;;;;;;;;20.74;100.00;97952.91;5027705;28;19932;-69
2023/09/17 05:47:56;;;;;;;;;;;;;;;20.72;100.00;97949.72;5026801;28;19952;-69
2023/09/17 05:50:22;;;;;;;;;;;;;;;20.82;100.00;97957.50;5024807;28;19925;-69
2023/09/17 05:52:49;;;;;;;;;;;;;;;20.92;100.00;97955.19;5023827;28;19961;-69
2023/09/17 05:55:15;;;;;;;;;;;;;;;20.94;100.00;97957.59;5024408;28;19922;-70
2023/09/17 05:57:42;;;;;;;;;;;;;;;20.97;100.00;97954.22;5026513;28;19926;-69
2023/09/17 06:00:09;;;;;;;;;;;;;;;21.00;100.00;97957.06;5026727;28;20269;-70
2023/09/17 06:02:37;;;;;;;;;;;;;;;21.06;100.00;97960.38;5023019;28;19921;-69
2023/09/17 06:05:04;;;;;;;;;;;;;;;20.99;100.00;97954.66;5023002;28;19964;-70
2023/09/17 06:07:31;;;;;;;;;;;;;;;20.88;100.00;97958.91;5025790;28;19929;-69
2023/09/17 06:09:57;;;;;;;;;;;;;;;21.04;100.00;97956.41;5026317;28;19932;-70
2023/09/17 06:12:24;;;;;;;;;;;;;;;21.13;100.00;97949.03;5024414;28;20553;-70
2023/09/17 06:14:50;;;;;;;;;;;;;;;21.34;100.00;97945.19;5023030;28;19932;-70
2023/09/17 06:17:16;;;;;;;;;;;;;;;21.48;100.00;97944.91;5025568;28;19926;-69
2023/09/17 06:19:44;;;;;;;;;;;;;;;21.80;100.00;97946.06;5026900;28;19926;-70
2023/09/17 06:22:11;;;;;;;;;;;;;;;21.98;100.00;97945.59;5027819;28;19925;-71
2023/09/17 06:24:37;;;;;;;;;;;;;;;22.31;100.00;97944.75;5023135;28;19932;-70
2023/09/17 06:27:04;;;;;;;;;;;;;;;22.46;100.00;97952.25;5023502;28;19932;-70
2023/09/17 06:29:31;;;;;;;;;;;;;;;22.58;100.00;97941.38;5026390;28;19996;-71
2023/09/17 06:31:57;;;;;;;;;;;;;;;22.95;100.00;97947.63;5009646;28;19980;-70
2023/09/17 06:34:24;;;;;;;;;;;;;;;23.20;100.00;97960.06;5024529;28;19933;-70
2023/09/17 06:36:52;;;;;;;;;;;;;;;23.50;97.84;97947.75;5022875;28;19926;-70
2023/09/17 06:39:18;;;;;;;;;;;;;;;23.84;94.90;97953.72;5024175;28;19926;-70
2023/09/17 06:41:45;;;;;;;;;;;;;;;24.08;92.98;97962.59;5026789;28;20432;-69
2023/09/17 06:44:11;;;;;;;;;;;;;;;24.28;91.30;97949.88;5026113;28;19926;-70
2023/09/17 06:46:38;;;;;;;;;;;;;;;24.24;91.45;97961.84;5024438;28;19933;-70
2023/09/17 06:49:04;;;;;;;;;;;;;;;24.13;92.52;97964.31;5022825;28;19937;-70
2023/09/17 06:51:30;;;;;;;;;;;;;;;23.94;93.95;97955.97;5025942;28;19925;-70
2023/09/17 06:53:58;;;;;;;;;;;;;;;23.73;95.66;97952.66;5026323;28;19925;-70
2023/09/17 06:56:25;;;;;;;;;;;;;;;23.56;97.26;97954.53;5023070;28;20450;-70
2023/09/17 06:58:51;;;;;;;;;;;;;;;23.27;100.00;97949.38;5022938;28;19958;-70
2023/09/17 07:01:18;;;;;;;;;;;;;;;23.19;100.00;97947.56;5023789;28;19926;-70
2023/09/17 07:03:45;;;;;;;;;;;;;;;23.05;100.00;97939.78;5026028;28;19921;-70
2023/09/17 07:06:11;;;;;;;;;;;;;;;22.86;100.00;97950.47;5017746;28;19971;-70
2023/09/17 07:08:37;;;;;;;;;;;;;;;22.75;100.00;97954.78;5026063;28;19930;-68
2023/09/17 07:11:05;;;;;;;;;;;;;;;22.38;100.00;97961.28;5026021;28;19949;-71
2023/09/17 07:13:32;;;;;;;;;;;;;;;22.01;100.00;97947.63;5022541;28;19940;-69
2023/09/17 07:15:58;;;;;;;;;;;;;;;22.05;100.00;97950.47;5028924;28;19992;-71
2023/09/17 07:18:26;;;;;;;;;;;;;;;22.16;100.00;97959.78;5023309;28;19921;-70
2023/09/17 07:20:52;;;;;;;;;;;;;;;22.46;100.00;97953.06;5022044;28;19985;-70
2023/09/17 07:23:19;;;;;;;;;;;;;;;22.70;100.00;97955.00;5023203;28;20560;-70
2023/09/17 07:25:45;;;;;;;;;;;;;;;22.99;100.00;97953.97;5025155;28;19932;-70
2023/09/17 07:28:13;;;;;;;;;;;;;;;22.93;100.00;97955.34;5024727;28;19925;-69
2023/09/17 07:30:39;;;;;;;;;;;;;;;23.07;100.00;97950.31;5021817;28;19921;-71
2023/09/17 07:33:06;;;;;;;;;;;;;;;22.88;100.00;97952.84;5021768;28;19925;-71
2023/09/17 07:35:32;;;;;;;;;;;;;;;22.24;100.00;97956.19;5024578;28;19941;-69
2023/09/17 07:37:59;;;;;;;;;;;;;;;21.83;100.00;97962.50;5024870;28;19929;-70
2023/09/17 07:40:26;;;;;;;;;;;;;;;21.78;100.00;97948.34;5022569;28;19949;-70
2023/09/17 07:42:52;;;;;;;;;;;;;;;21.95;100.00;97967.22;5021819;28;19935;-70
2023/09/17 07:45:20;;;;;;;;;;;;;;;22.02;100.00;97964.75;5024251;28;19925;-69
2023/09/17 07:47:46;;;;;;;;;;;;;;;22.08;100.00;97960.69;5024840;28;19933;-69
2023/09/17 07:50:13;;;;;;;;;;;;;;;22.11;100.00;97962.72;5025711;28;19922;-69
2023/09/17 07:52:40;;;;;;;;;;;;;;;21.80;100.00;97952.31;5021127;28;19984;-70
2023/09/17 07:55:07;;;;;;;;;;;;;;;21.46;100.00;97953.41;5021143;28;19945;-69
2023/09/17 07:57:34;;;;;;;;;;;;;;;21.48;100.00;97955.78;5021003;28;19989;-69
2023/09/17 08:00:00;;;;;;;;;;;;;;;21.54;100.00;97955.25;5021390;28;19933;-70
2023/09/17 08:02:28;;;;;;;;;;;;;;;21.74;100.00;97956.34;5023489;28;19928;-70
2023/09/17 08:04:54;;;;;;;;;;;;;;;21.63;100.00;97951.69;5024371;28;19932;-70
2023/09/17 08:07:21;;;;;;;;;;;;;;;21.38;100.00;97957.00;5021656;28;19931;-70
2023/09/17 08:09:48;;;;;;;;;;;;;;;21.49;100.00;97957.38;5020976;28;19968;-70
2023/09/17 08:12:14;;;;;;;;;;;;;;;21.38;100.00;97954.28;5021788;28;19926;-70
2023/09/17 08:14:45;;;;;;;;;;;;;;;21.17;100.00;97958.88;5024442;28;19968;-70
2023/09/17 08:17:11;;;;;;;;;;;;;;;21.18;100.00;97956.97;5024231;28;20349;-69
2023/09/17 08:19:39;;;;;;;;;;;;;;;21.35;100.00;97962.28;5024137;28;19925;-69
2023/09/17 08:22:06;;;;;;;;;;;;;;;21.34;100.00;97958.78;5024544;28;19975;-69
2023/09/17 08:24:32;;;;;;;;;;;;;;;21.31;100.00;97955.94;5021058;28;19961;-69
2023/09/17 08:26:58;;;;;;;;;;;;;;;21.34;100.00;97966.13;5020902;28;19926;-69
2023/09/17 08:29:25;;;;;;;;;;;;;;;21.33;100.00;97965.34;5023259;28;19925;-70
2023/09/17 08:31:51;;;;;;;;;;;;;;;21.37;100.00;97977.13;5024299;28;19929;-70
2023/09/17 08:34:18;;;;;;;;;;;;;;;21.34;100.00;97991.38;5022821;28;19960;-70
2023/09/17 08:36:45;;;;;;;;;;;;;;;21.12;100.00;97980.03;5020863;28;19921;-70
2023/09/17 08:39:12;;;;;;;;;;;;;;;20.94;100.00;97995.59;5021469;28;19926;-70
2023/09/17 08:41:40;;;;;;;;;;;;;;;21.00;100.00;97988.84;5006898;28;19925;-69
2023/09/17 08:44:06;;;;;;;;;;;;;;;21.15;100.00;97992.94;5023773;28;19925;-69
2023/09/17 08:46:33;;;;;;;;;;;;;;;21.19;100.00;97991.97;5022012;28;20421;-69
2023/09/17 08:49:01;;;;;;;;;;;;;;;21.00;100.00;97994.28;5020700;28;19922;-69
2023/09/17 08:51:30;;;;;;;;;;;;;;;20.84;100.00;97993.25;5022992;28;19926;-69
2023/09/17 08:54:02;;;;;;;;;;;;;;;20.98;100.00;97991.13;5023820;28;19922;-69
2023/09/17 08:56:30;;;;;;;;;;;;;;;21.11;100.00;97997.44;5021126;28;19972;-69
2023/09/17 08:59:09;;;;;;;;;;;;;;;21.22;100.00;98001.38;5020490;28;19949;-69
2023/09/17 09:01:38;;;;;;;;;;;;;;;21.34;100.00;98007.69;5020535;28;19925;-70
2023/09/17 09:04:06;;;;;;;;;;;;;;;21.31;100.00;98002.91;5020571;28;19933;-69
2023/09/17 09:06:33;;;;;;;;;;;;;;;21.30;100.00;98006.75;5023001;28;19936;-69
2023/09/17 09:09:03;;;;;;;;;;;;;;;21.34;100.00;98009.59;5023486;28;19932;-69
2023/09/17 09:11:31;;;;;;;;;;;;;;;21.24;100.00;98002.63;5020595;28;19922;-69
2023/09/17 09:13:57;;;;;;;;;;;;;;;21.36;100.00;97997.28;5019972;28;19926;-69
2023/09/17 09:16:24;;;;;;;;;;;;;;;21.43;100.00;97997.53;5027795;28;19960;-69
2023/09/17 09:18:50;;;;;;;;;;;;;;;21.47;100.00;97993.06;5019714;28;19925;-69
2023/09/17 09:21:17;;;;;;;;;;;;;;;21.61;100.00;98000.91;5020833;28;19933;-69
2023/09/17 09:23:43;;;;;;;;;;;;;;;21.69;100.00;97989.19;5023297;28;19972;-69
2023/09/17 09:26:11;;;;;;;;;;;;;;;21.77;100.00;97992.94;5022942;28;20003;-69
2023/09/17 09:28:37;;;;;;;;;;;;;;;21.90;100.00;97986.47;5019586;28;19926;-69
2023/09/17 09:31:06;;;;;;;;;;;;;;;21.98;100.00;97974.69;5019094;28;20301;-69
2023/09/17 09:33:33;;;;;;;;;;;;;;;22.22;100.00;97974.75;5023038;28;19987;-70
2023/09/17 09:36:00;;;;;;;;;;;;;;;22.30;100.00;97986.69;5023243;28;19921;-69
2023/09/17 09:38:26;;;;;;;;;;;;;;;22.37;100.00;97985.00;5020800;28;19925;-69
2023/09/17 09:40:54;;;;;;;;;;;;;;;22.51;100.00;97987.41;5019897;28;20410;-69
2023/09/17 09:43:32;;;;;;;;;;;;;;;22.59;100.00;97973.69;5021556;28;19954;-69
2023/09/17 09:46:02;;;;;;;;;;;;;;;22.62;100.00;97982.31;5024739;28;19933;-69
2023/09/17 09:48:29;;;;;;;;;;;;;;;22.73;100.00;97978.03;5020541;28;19956;-69
2023/09/17 09:50:56;;;;;;;;;;;;;;;22.87;100.00;97975.78;5020020;28;19926;-69
2023/09/17 09:53:22;;;;;;;;;;;;;;;22.94;100.00;97979.50;5020144;28;19932;-69
2023/09/17 09:55:49;;;;;;;;;;;;;;;23.03;100.00;97968.47;5022942;28;19972;-69
2023/09/17 09:58:15;;;;;;;;;;;;;;;23.10;100.00;97966.78;5021659;28;19933;-69
2023/09/17 10:00:45;;;;;;;;;;;;;;;23.20;100.00;97964.72;5018733;28;19976;-69
2023/09/17 10:03:11;;;;;;;;;;;;;;;23.24;100.00;97977.28;5019348;28;19965;-69
2023/09/17 10:05:39;;;;;;;;;;;;;;;23.24;100.00;97971.84;5021898;28;19961;-70
2023/09/17 10:08:07;;;;;;;;;;;;;;;23.32;100.00;97976.38;5022306;28;19989;-69
2023/09/17 10:10:34;;;;;;;;;;;;;;;23.36;100.00;97979.22;5018873;28;19976;-69
2023/09/17 10:13:00;;;;;;;;;;;;;;;23.29;100.00;97977.06;5018974;28;19926;-69
2023/09/17 10:15:27;;;;;;;;;;;;;;;23.34;100.00;97982.28;5022937;28;19972;-69
2023/09/17 10:17:55;;;;;;;;;;;;;;;23.44;100.00;97975.59;5022579;28;20673;-70
2023/09/17 10:20:23;;;;;;;;;;;;;;;23.53;100.00;97974.31;5020801;28;19926;-70
2023/09/17 10:22:49;;;;;;;;;;;;;;;23.57;100.00;97967.03;5018967;28;19926;-70
2023/09/17 10:25:17;;;;;;;;;;;;;;;23.67;100.00;97966.53;5019806;28;19926;-70
2023/09/17 10:27:44;;;;;;;;;;;;;;;23.72;100.00;97972.88;5022294;28;19929;-70
2023/09/17 10:30:13;;;;;;;;;;;;;;;23.73;100.00;97966.28;5022437;28;19926;-70
2023/09/17 10:32:41;;;;;;;;;;;;;;;23.79;100.00;97964.91;5022712;28;19932;-70
2023/09/17 10:35:10;;;;;;;;;;;;;;;23.82;100.00;97964.22;5021821;28;20009;-70
2023/09/17 10:37:38;;;;;;;;;;;;;;;23.89;100.00;97964.41;5022869;28;19933;-70
2023/09/17 10:40:08;;;;;;;;;;;;;;;23.97;100.00;97968.91;5022764;28;19922;-70
2023/09/17 10:42:35;;;;;;;;;;;;;;;24.02;100.00;97968.66;5022733;28;19921;-70
2023/09/17 10:45:03;;;;;;;;;;;;;;;24.20;100.00;97961.78;5023118;28;19933;-70
2023/09/17 10:47:33;;;;;;;;;;;;;;;24.26;100.00;97971.28;5008732;28;19976;-70
2023/09/17 10:49:59;;;;;;;;;;;;;;;24.57;100.00;97968.56;5026235;28;19949;-70
2023/09/17 10:52:28;;;;;;;;;;;;;;;25.01;100.00;97966.50;5023617;28;20293;-70
2023/09/17 10:54:54;;;;;;;;;;;;;;;25.06;100.00;97968.19;5022345;28;19968;-70
2023/09/17 10:57:23;;;;;;;;;;;;;;;25.03;100.00;97966.97;5023875;28;19949;-70
2023/09/17 10:59:52;;;;;;;;;;;;;;;24.87;100.00;97962.66;5025513;28;19933;-70
2023/09/17 11:02:19;;;;;;;;;;;;;;;24.66;100.00;97963.69;5024431;28;19926;-70
2023/09/17 11:04:46;;;;;;;;;;;;;;;24.70;100.00;97950.94;5022021;28;19929;-70
2023/09/17 11:07:14;;;;;;;;;;;;;;;24.82;100.00;97939.13;5022108;28;20043;-70
2023/09/17 11:09:45;;;;;;;;;;;;;;;24.82;100.00;97944.59;5025451;28;19948;-70
2023/09/17 11:12:11;;;;;;;;;;;;;;;24.82;100.00;97941.84;5024935;28;19976;-70
2023/09/17 11:14:38;;;;;;;;;;;;;;;24.94;100.00;97943.72;5022019;28;19936;-70
2023/09/17 11:17:05;;;;;;;;;;;;;;;25.34;100.00;97941.47;5023935;28;20094;-70
2023/09/17 11:19:31;;;;;;;;;;;;;;;25.18;100.00;97943.47;5025570;28;19936;-70
2023/09/17 11:22:12;;;;;;;;;;;;;;;25.23;100.00;97940.44;5025618;28;19926;-70
2023/09/17 11:24:39;;;;;;;;;;;;;;;25.26;100.00;97950.66;5021695;28;19926;-70
2023/09/17 11:27:08;;;;;;;;;;;;;;;25.31;100.00;97934.00;5021498;28;19957;-69
2023/09/17 11:29:41;;;;;;;;;;;;;;;25.35;100.00;97934.84;5024686;28;19921;-70
2023/09/17 11:32:08;;;;;;;;;;;;;;;25.24;100.00;97928.38;5024441;28;19925;-70
2023/09/17 11:34:35;;;;;;;;;;;;;;;25.28;100.00;97923.78;5021325;28;19922;-70
2023/09/17 11:37:03;;;;;;;;;;;;;;;25.36;100.00;97911.84;5021536;28;19937;-70
2023/09/17 11:39:29;;;;;;;;;;;;;;;25.44;100.00;97908.09;5023998;28;19929;-70
2023/09/17 11:42:03;;;;;;;;;;;;;;;25.45;100.00;97897.94;5024541;28;19960;-70
2023/09/17 11:44:32;;;;;;;;;;;;;;;25.53;100.00;97905.94;5021985;28;19921;-70
2023/09/17 11:46:58;;;;;;;;;;;;;;;25.60;100.00;97900.63;5023805;28;20538;-69
2023/09/17 11:49:25;;;;;;;;;;;;;;;25.62;100.00;97901.06;5023718;28;19925;-70
2023/09/17 11:51:52;;;;;;;;;;;;;;;25.59;100.00;97893.56;5025323;28;19944;-69
2023/09/17 11:57:01;;;;;;;;;;;;;;;25.65;100.00;97877.69;5018473;28;19929;-70
2023/09/17 11:59:28;;;;;;;;;;;;;;;25.62;100.00;97884.66;5022688;28;19922;-71
2023/09/17 12:01:57;;;;;;;;;;;;;;;25.71;100.00;97884.44;5007076;28;19922;-71
2023/09/17 12:04:24;;;;;;;;;;;;;;;25.80;100.00;97886.94;5022301;28;19925;-68
2023/09/17 12:06:51;;;;;;;;;;;;;;;25.85;100.00;97870.22;5020742;28;19922;-69
2023/09/17 12:09:21;;;;;;;;;;;;;;;25.87;100.00;97882.41;5022203;28;19930;-69
2023/09/17 12:11:48;;;;;;;;;;;;;;;25.81;100.00;97880.31;5024056;28;19928;-69
2023/09/17 12:14:15;;;;;;;;;;;;;;;25.89;100.00;97882.00;5023446;28;19925;-69
2023/09/17 12:16:42;;;;;;;;;;;;;;;25.97;100.00;97875.50;5022192;28;19925;-69
2023/09/17 12:19:09;;;;;;;;;;;;;;;26.04;100.00;97872.91;5020723;28;19932;-69
2023/09/17 12:21:48;;;;;;;;;;;;;;;26.12;100.00;97871.88;5012657;28;19940;-69
2023/09/17 12:24:23;;;;;;;;;;;;;;;26.12;100.00;97866.41;5012643;28;20656;-69
2023/09/17 12:27:24;;;;;;;;;;;;;;;26.20;100.00;97860.72;5012481;28;19949;-69
2023/09/17 12:29:51;;;;;;;;;;;;;;;26.15;100.00;97868.41;5012497;28;19930;-69
2023/09/17 12:32:19;;;;;;;;;;;;;;;25.91;100.00;97861.34;5021596;28;19925;-69
2023/09/17 12:34:48;;;;;;;;;;;;;;;26.04;100.00;97857.28;5023929;28;19930;-69
2023/09/17 12:37:17;;;;;;;;;;;;;;;26.03;100.00;97852.16;5023223;28;19959;-69
2023/09/17 12:39:44;;;;;;;;;;;;;;;26.09;100.00;97850.72;5020540;28;19926;-70
2023/09/17 12:42:11;;;;;;;;;;;;;;;26.07;100.00;97851.06;5020600;28;19926;-69